Time;durP1;ratioP1;P1;durP2;ratioP2;P2;SDS_P1;SDS_P2;PMS_P1;PMS_P2;Temp;Humidity;BMP_temperature;BMP_pressure;BME280_temperature;BME280_humidity;BME280_pressure;Samples;Min_cycle;Max_cycle;Signal;HPM_P1;HPM_P2
2021/07/23 00:01:39;;;;;;;15.35;10.52;;;;;;;;;;4997101;28;20026;-82
2021/07/23 00:04:10;;;;;;;14.52;11.00;;;;;;;;;;4997631;28;20030;-82
2021/07/23 00:06:37;;;;;;;16.30;10.77;;;;;;;;;;5014950;28;20018;-83
2021/07/23 00:09:12;;;;;;;13.13;10.07;;;;;;;;;;4997075;28;20106;-83
2021/07/23 00:11:47;;;;;;;17.10;10.57;;;;;;;;;;5014943;28;20107;-82
2021/07/23 00:14:16;;;;;;;12.38;10.18;;;;;;;;;;4996294;28;20117;-83
2021/07/23 00:17:01;;;;;;;15.50;10.35;;;;;;;;;;4998699;28;20026;-81
2021/07/23 00:19:31;;;;;;;12.88;10.88;;;;;;;;;;5016357;28;20022;-81
2021/07/23 00:22:16;;;;;;;14.15;10.73;;;;;;;;;;5016835;28;20081;-81
2021/07/23 00:24:42;;;;;;;14.70;10.80;;;;;;;;;;4999078;28;20486;-82
2021/07/23 00:27:08;;;;;;;13.43;10.30;;;;;;;;;;5012777;28;20026;-82
2021/07/23 00:29:34;;;;;;;14.63;10.88;;;;;;;;;;5012737;28;20425;-83
2021/07/23 00:32:00;;;;;;;14.07;10.05;;;;;;;;;;5012755;28;20029;-83
2021/07/23 00:34:26;;;;;;;12.82;10.45;;;;;;;;;;5012929;28;20029;-83
2021/07/23 00:36:52;;;;;;;16.25;11.25;;;;;;;;;;5012770;28;20056;-83
2021/07/23 00:39:18;;;;;;;15.45;10.38;;;;;;;;;;5012852;28;20104;-82
2021/07/23 00:41:44;;;;;;;12.93;10.32;;;;;;;;;;5012948;28;20057;-83
2021/07/23 00:44:10;;;;;;;15.98;10.65;;;;;;;;;;5012652;28;20072;-82
2021/07/23 00:46:38;;;;;;;12.32;10.55;;;;;;;;;;5012742;28;20153;-83
2021/07/23 00:49:04;;;;;;;13.23;10.23;;;;;;;;;;5012855;28;20022;-83
2021/07/23 00:51:30;;;;;;;12.82;9.82;;;;;;;;;;5012599;28;20033;-82
2021/07/23 00:53:57;;;;;;;12.13;10.13;;;;;;;;;;5012592;28;20045;-84
2021/07/23 00:56:23;;;;;;;15.85;10.18;;;;;;;;;;4998268;28;20080;-83
2021/07/23 00:58:49;;;;;;;13.85;9.88;;;;;;;;;;5014094;28;20029;-83
2021/07/23 01:01:15;;;;;;;13.18;10.73;;;;;;;;;;5013370;28;20021;-82
2021/07/23 01:03:43;;;;;;;13.10;9.65;;;;;;;;;;5013429;28;20367;-80
2021/07/23 01:06:09;;;;;;;11.10;9.82;;;;;;;;;;5015886;28;20033;-83
2021/07/23 01:08:35;;;;;;;14.70;10.38;;;;;;;;;;5015838;28;20037;-82
2021/07/23 01:11:01;;;;;;;13.63;10.80;;;;;;;;;;5015950;28;20033;-83
2021/07/23 01:13:27;;;;;;;15.65;11.38;;;;;;;;;;5015409;28;20116;-83
2021/07/23 01:15:53;;;;;;;15.27;10.25;;;;;;;;;;5015871;28;20030;-83
2021/07/23 01:18:19;;;;;;;17.25;10.77;;;;;;;;;;5015790;28;20561;-82
2021/07/23 01:20:46;;;;;;;15.82;10.20;;;;;;;;;;5015735;28;20517;-83
2021/07/23 01:23:14;;;;;;;13.82;10.85;;;;;;;;;;5015634;28;20105;-84
2021/07/23 01:25:40;;;;;;;11.88;10.60;;;;;;;;;;4998027;28;20482;-83
2021/07/23 01:28:06;;;;;;;12.82;10.18;;;;;;;;;;5015442;28;20132;-83
2021/07/23 01:30:34;;;;;;;14.07;10.25;;;;;;;;;;5015732;28;20022;-84
2021/07/23 01:33:00;;;;;;;14.45;10.13;;;;;;;;;;4998391;28;20072;-83
2021/07/23 01:35:26;;;;;;;11.32;9.95;;;;;;;;;;5015455;28;20030;-83
2021/07/23 01:37:54;;;;;;;15.90;10.02;;;;;;;;;;5015509;28;20101;-83
2021/07/23 01:40:20;;;;;;;10.48;9.38;;;;;;;;;;5015650;28;20548;-83
2021/07/23 01:42:46;;;;;;;13.82;9.38;;;;;;;;;;5015043;28;20053;-83
2021/07/23 01:45:12;;;;;;;10.68;9.45;;;;;;;;;;5015221;28;20057;-84
2021/07/23 01:47:39;;;;;;;10.77;9.57;;;;;;;;;;5015093;28;20491;-84
2021/07/23 01:50:05;;;;;;;14.50;9.85;;;;;;;;;;5014865;28;20018;-83
2021/07/23 01:52:32;;;;;;;14.20;10.40;;;;;;;;;;5015177;28;20049;-83
2021/07/23 01:54:58;;;;;;;13.23;9.85;;;;;;;;;;5015051;28;20042;-83
2021/07/23 01:57:25;;;;;;;13.43;9.98;;;;;;;;;;5015043;28;20036;-84
2021/07/23 01:59:51;;;;;;;11.70;9.82;;;;;;;;;;5014868;28;20050;-83
2021/07/23 02:02:17;;;;;;;13.60;9.77;;;;;;;;;;5015135;28;20364;-83
2021/07/23 02:04:43;;;;;;;14.60;10.45;;;;;;;;;;5014994;28;20029;-84
2021/07/23 02:07:09;;;;;;;14.25;9.80;;;;;;;;;;5014046;28;20030;-84
2021/07/23 02:09:35;;;;;;;14.77;10.20;;;;;;;;;;5014870;28;20022;-84
2021/07/23 02:12:01;;;;;;;15.27;10.40;;;;;;;;;;5014930;28;20034;-84
2021/07/23 02:14:28;;;;;;;12.45;10.05;;;;;;;;;;5014978;28;20415;-83
2021/07/23 02:16:54;;;;;;;15.30;9.98;;;;;;;;;;5015015;28;20030;-84
2021/07/23 02:19:20;;;;;;;13.27;10.10;;;;;;;;;;5014504;28;20022;-84
2021/07/23 02:21:47;;;;;;;20.75;10.38;;;;;;;;;;5015013;28;20022;-84
2021/07/23 02:24:13;;;;;;;11.30;10.00;;;;;;;;;;5014474;28;20393;-84
2021/07/23 02:26:39;;;;;;;12.25;10.50;;;;;;;;;;5014620;28;20470;-83
2021/07/23 02:29:05;;;;;;;14.45;10.00;;;;;;;;;;5014340;28;20054;-83
2021/07/23 02:31:31;;;;;;;12.57;9.85;;;;;;;;;;5014869;28;20045;-83
2021/07/23 02:33:57;;;;;;;13.23;9.10;;;;;;;;;;5014557;28;20037;-83
2021/07/23 02:36:23;;;;;;;13.57;9.45;;;;;;;;;;5014691;28;20018;-83
2021/07/23 02:38:49;;;;;;;10.25;9.27;;;;;;;;;;5014305;28;20030;-83
2021/07/23 02:41:15;;;;;;;11.02;9.82;;;;;;;;;;5014208;28;20447;-82
2021/07/23 02:43:43;;;;;;;13.68;9.27;;;;;;;;;;5013885;28;20097;-83
2021/07/23 02:46:09;;;;;;;13.90;10.35;;;;;;;;;;5014242;28;20029;-83
2021/07/23 02:48:35;;;;;;;10.48;9.45;;;;;;;;;;5014420;28;20026;-83
2021/07/23 02:51:01;;;;;;;11.82;9.07;;;;;;;;;;4996638;28;20398;-82
2021/07/23 02:53:27;;;;;;;12.18;9.57;;;;;;;;;;5013846;28;20445;-79
2021/07/23 02:55:53;;;;;;;11.50;9.65;;;;;;;;;;5014153;28;20033;-83
2021/07/23 02:58:19;;;;;;;11.43;9.27;;;;;;;;;;5013966;28;20486;-83
2021/07/23 03:00:45;;;;;;;10.98;9.30;;;;;;;;;;5013791;28;20058;-83
2021/07/23 03:03:11;;;;;;;11.00;9.85;;;;;;;;;;5014011;28;20034;-83
2021/07/23 03:05:37;;;;;;;10.70;9.07;;;;;;;;;;5013815;28;20029;-83
2021/07/23 03:08:06;;;;;;;13.18;8.82;;;;;;;;;;5013986;28;20105;-83
2021/07/23 03:10:32;;;;;;;13.13;10.13;;;;;;;;;;5013744;28;20089;-82
2021/07/23 03:12:58;;;;;;;14.25;9.82;;;;;;;;;;5013879;28;20474;-83
2021/07/23 03:15:24;;;;;;;13.75;10.07;;;;;;;;;;5013776;28;20121;-83
2021/07/23 03:17:50;;;;;;;16.98;10.25;;;;;;;;;;5013839;28;20084;-83
2021/07/23 03:20:16;;;;;;;20.00;10.77;;;;;;;;;;5013497;28;20030;-83
2021/07/23 03:22:42;;;;;;;26.23;10.00;;;;;;;;;;5013956;28;20030;-83
2021/07/23 03:25:08;;;;;;;17.33;10.52;;;;;;;;;;5013714;28;20348;-84
2021/07/23 03:27:34;;;;;;;14.55;9.75;;;;;;;;;;5013558;28;20092;-84
2021/07/23 03:30:00;;;;;;;19.90;9.75;;;;;;;;;;5013402;28;20018;-82
2021/07/23 03:32:26;;;;;;;17.17;10.20;;;;;;;;;;5013744;28;20124;-82
2021/07/23 03:34:52;;;;;;;20.95;10.65;;;;;;;;;;5013539;28;20121;-82
2021/07/23 03:37:18;;;;;;;17.23;10.68;;;;;;;;;;5013616;28;20138;-82
2021/07/23 03:39:44;;;;;;;12.38;10.30;;;;;;;;;;5013570;28;20044;-82
2021/07/23 03:42:10;;;;;;;15.98;10.27;;;;;;;;;;5013580;28;20033;-83
2021/07/23 03:44:36;;;;;;;13.43;10.10;;;;;;;;;;5013411;28;20022;-83
2021/07/23 03:47:02;;;;;;;14.98;10.95;;;;;;;;;;5013643;28;20026;-83
2021/07/23 03:49:28;;;;;;;17.38;10.70;;;;;;;;;;5013406;28;20017;-83
2021/07/23 03:51:56;;;;;;;13.45;10.52;;;;;;;;;;4995722;28;20391;-83
2021/07/23 03:54:22;;;;;;;13.07;9.85;;;;;;;;;;5013243;28;20034;-83
2021/07/23 03:56:48;;;;;;;16.73;10.70;;;;;;;;;;5013190;28;20030;-83
2021/07/23 03:59:14;;;;;;;14.63;10.95;;;;;;;;;;5013199;28;20109;-83
2021/07/23 04:01:40;;;;;;;15.77;10.43;;;;;;;;;;5013243;28;20030;-83
2021/07/23 04:04:06;;;;;;;13.18;10.10;;;;;;;;;;5013192;28;20026;-82
2021/07/23 04:06:33;;;;;;;16.65;9.88;;;;;;;;;;5013232;28;20108;-82
2021/07/23 04:08:59;;;;;;;15.32;10.20;;;;;;;;;;5013338;28;20378;-83
2021/07/23 04:11:38;;;;;;;18.80;10.93;;;;;;;;;;5013083;28;20038;-82
2021/07/23 04:14:04;;;;;;;10.93;9.32;;;;;;;;;;5012865;28;20025;-82
2021/07/23 04:16:30;;;;;;;12.18;8.93;;;;;;;;;;5013164;28;20026;-82
2021/07/23 04:18:56;;;;;;;10.57;8.95;;;;;;;;;;4995847;28;20390;-82
2021/07/23 04:21:22;;;;;;;17.20;10.75;;;;;;;;;;5012891;28;20049;-83
2021/07/23 04:23:48;;;;;;;16.15;10.10;;;;;;;;;;5013095;28;20101;-84
2021/07/23 04:26:14;;;;;;;16.92;10.43;;;;;;;;;;5013018;28;20367;-78
2021/07/23 04:28:40;;;;;;;12.63;10.13;;;;;;;;;;5012851;28;20054;-78
2021/07/23 04:31:06;;;;;;;13.70;10.27;;;;;;;;;;5016386;28;20516;-78
2021/07/23 04:33:32;;;;;;;11.07;9.60;;;;;;;;;;5016043;28;20036;-76
2021/07/23 04:35:58;;;;;;;14.30;9.55;;;;;;;;;;5015885;28;20104;-76
2021/07/23 04:38:24;;;;;;;12.52;9.93;;;;;;;;;;5015153;28;20034;-76
2021/07/23 04:40:50;;;;;;;14.27;10.30;;;;;;;;;;5016455;28;20030;-76
2021/07/23 04:43:17;;;;;;;10.40;9.27;;;;;;;;;;5016386;28;20101;-76
2021/07/23 04:45:43;;;;;;;13.55;9.52;;;;;;;;;;5016478;28;20026;-76
2021/07/23 04:48:09;;;;;;;12.20;9.80;;;;;;;;;;5016584;28;20431;-77
2021/07/23 04:50:35;;;;;;;13.13;9.38;;;;;;;;;;5016306;28;20100;-76
2021/07/23 04:53:01;;;;;;;11.65;10.10;;;;;;;;;;5016214;28;20026;-76
2021/07/23 04:55:27;;;;;;;14.35;9.70;;;;;;;;;;5016147;28;20038;-76
2021/07/23 04:57:53;;;;;;;12.75;10.30;;;;;;;;;;5016371;28;20056;-76
2021/07/23 05:00:19;;;;;;;14.85;9.55;;;;;;;;;;5016046;28;20390;-76
2021/07/23 05:02:52;;;;;;;12.90;10.07;;;;;;;;;;4998454;28;20030;-76
2021/07/23 05:05:19;;;;;;;11.77;9.43;;;;;;;;;;5016158;28;20093;-77
2021/07/23 05:07:45;;;;;;;12.30;10.07;;;;;;;;;;5015808;28;20030;-77
2021/07/23 05:10:11;;;;;;;13.77;9.27;;;;;;;;;;5015962;28;20164;-77
2021/07/23 05:12:38;;;;;;;15.05;9.50;;;;;;;;;;5015965;28;20038;-78
2021/07/23 05:15:04;;;;;;;11.55;9.55;;;;;;;;;;5015670;28;20032;-76
2021/07/23 05:17:32;;;;;;;17.08;9.80;;;;;;;;;;5015770;28;20034;-76
2021/07/23 05:19:58;;;;;;;15.13;9.82;;;;;;;;;;5015989;28;20021;-77
2021/07/23 05:22:24;;;;;;;12.35;9.07;;;;;;;;;;5015758;28;20501;-76
2021/07/23 05:24:50;;;;;;;20.02;9.82;;;;;;;;;;5015278;28;20040;-76
2021/07/23 05:27:17;;;;;;;16.17;10.20;;;;;;;;;;5015186;28;20034;-76
2021/07/23 05:29:43;;;;;;;19.30;9.82;;;;;;;;;;5013652;28;20026;-76
2021/07/23 05:32:09;;;;;;;12.95;10.10;;;;;;;;;;5014428;28;20117;-77
2021/07/23 05:34:35;;;;;;;10.70;9.45;;;;;;;;;;5014805;28;20541;-77
2021/07/23 05:37:01;;;;;;;17.00;9.43;;;;;;;;;;5015037;28;20030;-76
2021/07/23 05:39:27;;;;;;;13.70;9.75;;;;;;;;;;5014770;28;20032;-76
2021/07/23 05:41:53;;;;;;;12.57;9.65;;;;;;;;;;5013796;28;20470;-76
2021/07/23 05:44:19;;;;;;;11.45;9.50;;;;;;;;;;5015243;28;20425;-77
2021/07/23 05:46:45;;;;;;;16.60;9.95;;;;;;;;;;5014982;28;20497;-77
2021/07/23 05:49:11;;;;;;;12.82;9.45;;;;;;;;;;5015158;28;20026;-76
2021/07/23 05:51:37;;;;;;;10.25;9.13;;;;;;;;;;5014960;28;20026;-76
2021/07/23 05:54:03;;;;;;;11.77;9.05;;;;;;;;;;5014867;28;20136;-76
2021/07/23 05:56:29;;;;;;;10.07;9.05;;;;;;;;;;5015221;28;20026;-77
2021/07/23 05:58:55;;;;;;;11.15;9.80;;;;;;;;;;5015532;28;20120;-75
2021/07/23 06:01:21;;;;;;;11.02;9.63;;;;;;;;;;5014836;28;20030;-76
2021/07/23 06:03:47;;;;;;;13.13;9.75;;;;;;;;;;5014974;28;20025;-74
2021/07/23 06:06:14;;;;;;;14.93;9.48;;;;;;;;;;5014351;28;20026;-73
2021/07/23 06:08:40;;;;;;;10.88;8.93;;;;;;;;;;5014371;28;20022;-73
2021/07/23 06:11:06;;;;;;;13.05;9.48;;;;;;;;;;5014559;28;20105;-73
2021/07/23 06:13:38;;;;;;;13.98;9.25;;;;;;;;;;5014439;28;20485;-73
2021/07/23 06:16:05;;;;;;;10.77;9.00;;;;;;;;;;5014667;28;20026;-73
2021/07/23 06:18:31;;;;;;;12.45;8.52;;;;;;;;;;5014596;28;20032;-73
2021/07/23 06:20:57;;;;;;;10.07;9.00;;;;;;;;;;5014129;28;20394;-76
2021/07/23 06:23:23;;;;;;;12.40;9.52;;;;;;;;;;5014273;28;20475;-75
2021/07/23 06:25:49;;;;;;;13.77;8.73;;;;;;;;;;5014355;28;20484;-75
2021/07/23 06:28:15;;;;;;;17.73;9.15;;;;;;;;;;5003539;28;20053;-76
2021/07/23 06:30:41;;;;;;;10.27;9.23;;;;;;;;;;4977553;28;20085;-75
2021/07/23 06:33:07;;;;;;;12.82;9.32;;;;;;;;;;4995014;28;20057;-75
2021/07/23 06:35:33;;;;;;;16.50;9.52;;;;;;;;;;4994930;28;20395;-75
2021/07/23 06:38:00;;;;;;;11.98;9.23;;;;;;;;;;4994811;28;20026;-74
2021/07/23 06:40:26;;;;;;;10.38;9.27;;;;;;;;;;4994723;28;20492;-75
2021/07/23 06:42:52;;;;;;;12.02;9.02;;;;;;;;;;4994894;28;20382;-75
2021/07/23 06:45:18;;;;;;;12.38;9.57;;;;;;;;;;4995188;28;20456;-75
2021/07/23 06:47:44;;;;;;;11.88;9.32;;;;;;;;;;4994607;28;20026;-75
2021/07/23 06:50:11;;;;;;;10.75;8.57;;;;;;;;;;4994350;28;20011;-75
2021/07/23 06:52:37;;;;;;;12.77;9.25;;;;;;;;;;4994130;28;20031;-75
2021/07/23 06:55:03;;;;;;;14.35;9.18;;;;;;;;;;4994321;28;20027;-75
2021/07/23 06:57:32;;;;;;;11.95;9.27;;;;;;;;;;4994450;28;20034;-75
2021/07/23 06:59:58;;;;;;;13.43;8.60;;;;;;;;;;4994379;28;20050;-75
2021/07/23 07:02:24;;;;;;;10.90;8.95;;;;;;;;;;4994411;28;20031;-76
2021/07/23 07:04:50;;;;;;;13.10;8.80;;;;;;;;;;4994480;28;20480;-74
2021/07/23 07:07:17;;;;;;;9.75;8.13;;;;;;;;;;4994490;28;20487;-75
2021/07/23 07:09:43;;;;;;;11.70;8.68;;;;;;;;;;4994298;28;20022;-75
2021/07/23 07:12:10;;;;;;;12.68;9.13;;;;;;;;;;4994333;28;20041;-75
2021/07/23 07:14:36;;;;;;;11.48;8.40;;;;;;;;;;4994052;28;20069;-76
2021/07/23 07:17:03;;;;;;;11.35;8.00;;;;;;;;;;4994425;28;20019;-75
2021/07/23 07:19:29;;;;;;;11.10;7.97;;;;;;;;;;4994216;28;20487;-75
2021/07/23 07:21:55;;;;;;;10.98;7.82;;;;;;;;;;4994227;28;20022;-75
2021/07/23 07:24:21;;;;;;;14.05;8.10;;;;;;;;;;4993888;28;20034;-76
2021/07/23 07:26:48;;;;;;;9.57;8.32;;;;;;;;;;4993901;28;20036;-76
2021/07/23 07:29:14;;;;;;;12.75;8.45;;;;;;;;;;5011447;28;20099;-75
2021/07/23 07:31:40;;;;;;;10.40;7.63;;;;;;;;;;5013655;28;20032;-76
2021/07/23 07:34:07;;;;;;;9.75;7.80;;;;;;;;;;5013498;28;20048;-75
2021/07/23 07:36:33;;;;;;;9.52;7.30;;;;;;;;;;5013560;28;20025;-75
2021/07/23 07:38:59;;;;;;;9.63;7.38;;;;;;;;;;5013489;28;20030;-75
2021/07/23 07:41:26;;;;;;;12.57;8.25;;;;;;;;;;5013328;28;20049;-75
2021/07/23 07:43:52;;;;;;;11.88;8.00;;;;;;;;;;5013440;28;20390;-75
2021/07/23 07:46:18;;;;;;;11.20;7.47;;;;;;;;;;5013492;28;20036;-76
2021/07/23 07:48:45;;;;;;;10.15;7.43;;;;;;;;;;5013365;28;20428;-75
2021/07/23 07:51:11;;;;;;;10.60;7.20;;;;;;;;;;5013601;28;20386;-76
2021/07/23 07:53:37;;;;;;;10.55;7.25;;;;;;;;;;5013151;28;20062;-76
2021/07/23 07:56:07;;;;;;;9.60;7.20;;;;;;;;;;5013293;28;20022;-75
2021/07/23 07:58:33;;;;;;;12.90;7.15;;;;;;;;;;5013239;28;20059;-75
2021/07/23 08:00:59;;;;;;;8.43;6.70;;;;;;;;;;5013345;28;20018;-75
2021/07/23 08:03:25;;;;;;;10.57;6.97;;;;;;;;;;5013393;28;20033;-75
2021/07/23 08:05:56;;;;;;;12.75;7.50;;;;;;;;;;5016345;28;20033;-75
2021/07/23 08:08:22;;;;;;;12.82;7.43;;;;;;;;;;5017466;28;20104;-75
2021/07/23 08:10:48;;;;;;;9.25;7.25;;;;;;;;;;5017440;28;20022;-75
2021/07/23 08:13:14;;;;;;;9.90;7.45;;;;;;;;;;5017115;28;20045;-75
2021/07/23 08:15:43;;;;;;;10.07;7.60;;;;;;;;;;5017206;28;20030;-75
2021/07/23 08:18:10;;;;;;;8.98;7.43;;;;;;;;;;5017021;28;20389;-75
2021/07/23 08:20:37;;;;;;;9.77;7.10;;;;;;;;;;5016915;28;20040;-75
2021/07/23 08:23:05;;;;;;;9.10;7.57;;;;;;;;;;5017126;28;20053;-76
2021/07/23 08:25:31;;;;;;;8.32;6.70;;;;;;;;;;5016852;28;20029;-75
2021/07/23 08:27:57;;;;;;;10.07;7.10;;;;;;;;;;5017012;28;20405;-76
2021/07/23 08:30:23;;;;;;;7.72;6.90;;;;;;;;;;5016982;28;20049;-75
2021/07/23 08:32:49;;;;;;;10.52;6.97;;;;;;;;;;5016970;28;20053;-75
2021/07/23 08:35:15;;;;;;;11.63;6.85;;;;;;;;;;5016663;28;20049;-75
2021/07/23 08:37:44;;;;;;;11.88;7.38;;;;;;;;;;5016781;28;20060;-76
2021/07/23 08:40:11;;;;;;;7.45;6.22;;;;;;;;;;5016822;28;20026;-75
2021/07/23 08:42:37;;;;;;;9.15;7.07;;;;;;;;;;5016623;28;20053;-75
2021/07/23 08:45:04;;;;;;;10.15;6.72;;;;;;;;;;5016559;28;20022;-75
2021/07/23 08:47:30;;;;;;;8.15;6.43;;;;;;;;;;5016466;28;20494;-75
2021/07/23 08:49:56;;;;;;;8.18;6.40;;;;;;;;;;5016416;28;20105;-75
2021/07/23 08:52:41;;;;;;;13.55;7.65;;;;;;;;;;5016422;28;20032;-75
2021/07/23 08:55:08;;;;;;;8.75;6.78;;;;;;;;;;5016384;28;20030;-75
2021/07/23 08:57:34;;;;;;;8.68;6.93;;;;;;;;;;5016572;28;20121;-75
2021/07/23 09:00:00;;;;;;;8.40;6.78;;;;;;;;;;5016484;28;20379;-75
2021/07/23 09:02:26;;;;;;;10.05;6.93;;;;;;;;;;5016277;28;20026;-75
2021/07/23 09:04:53;;;;;;;8.20;6.35;;;;;;;;;;5016301;28;20032;-75
2021/07/23 09:07:19;;;;;;;9.57;6.75;;;;;;;;;;5016155;28;20033;-75
2021/07/23 09:09:54;;;;;;;11.98;7.18;;;;;;;;;;5016428;28;20022;-75
2021/07/23 09:12:20;;;;;;;10.10;6.95;;;;;;;;;;5016224;28;20105;-74
2021/07/23 09:14:47;;;;;;;8.85;6.95;;;;;;;;;;5016138;28;20029;-75
2021/07/23 09:17:13;;;;;;;9.65;7.03;;;;;;;;;;5015999;28;20444;-75
2021/07/23 09:19:39;;;;;;;9.65;6.57;;;;;;;;;;5015864;28;20101;-75
2021/07/23 09:22:06;;;;;;;9.40;7.22;;;;;;;;;;5016064;28;20032;-75
2021/07/23 09:25:04;;;;;;;8.45;6.90;;;;;;;;;;5016020;28;20022;-75
2021/07/23 09:27:34;;;;;;;10.95;7.03;;;;;;;;;;4993369;28;20169;-75
2021/07/23 09:30:01;;;;;;;14.77;7.88;;;;;;;;;;5015705;28;20032;-74
2021/07/23 09:32:30;;;;;;;21.77;7.43;;;;;;;;;;5016034;28;20026;-75
2021/07/23 09:35:10;;;;;;;7.60;6.05;;;;;;;;;;5015711;28;20397;-75
2021/07/23 09:37:53;;;;;;;12.80;6.95;;;;;;;;;;5015512;28;20097;-75
2021/07/23 09:40:20;;;;;;;12.95;7.18;;;;;;;;;;5015813;28;20025;-76
2021/07/23 09:42:55;;;;;;;8.13;6.70;;;;;;;;;;5015535;28;20033;-75
2021/07/23 09:45:27;;;;;;;8.00;6.75;;;;;;;;;;5015494;28;20032;-76
2021/07/23 09:47:54;;;;;;;8.05;6.60;;;;;;;;;;5015553;28;20053;-76
2021/07/23 09:50:21;;;;;;;10.32;7.68;;;;;;;;;;5015369;28;20097;-75
2021/07/23 09:52:48;;;;;;;8.20;7.25;;;;;;;;;;5015247;28;20041;-75
2021/07/23 09:55:14;;;;;;;11.15;7.03;;;;;;;;;;5015368;28;20390;-75
2021/07/23 09:57:46;;;;;;;13.25;7.20;;;;;;;;;;4997832;28;20371;-75
2021/07/23 10:00:11;;;;;;;;;;;;;;;;;;5015953;28;20097;-75
2021/07/23 10:02:43;;;;;;;14.57;6.63;;;;;;;;;;5015347;28;19947;-75
2021/07/23 10:05:13;;;;;;;9.98;7.30;;;;;;;;;;5015427;28;20045;-75
2021/07/23 10:07:46;;;;;;;7.97;6.72;;;;;;;;;;5015138;28;20083;-75
2021/07/23 10:10:13;;;;;;;8.25;7.00;;;;;;;;;;5015187;28;20030;-75
2021/07/23 10:12:41;;;;;;;9.18;7.07;;;;;;;;;;5014887;28;20037;-75
2021/07/23 10:15:07;;;;;;;10.07;6.72;;;;;;;;;;5015058;28;20069;-75
2021/07/23 10:17:34;;;;;;;9.05;6.97;;;;;;;;;;5015204;28;20029;-75
2021/07/23 10:20:01;;;;;;;8.85;6.97;;;;;;;;;;5015047;28;20030;-75
2021/07/23 10:22:27;;;;;;;7.47;6.70;;;;;;;;;;5014918;28;20029;-75
2021/07/23 10:24:54;;;;;;;11.48;7.18;;;;;;;;;;5014704;28;20026;-75
2021/07/23 10:27:22;;;;;;;16.50;6.78;;;;;;;;;;5013992;28;20026;-75
2021/07/23 10:29:49;;;;;;;10.57;7.18;;;;;;;;;;5014814;28;20378;-75
2021/07/23 10:32:27;;;;;;;8.45;6.68;;;;;;;;;;5014798;28;20100;-76
2021/07/23 10:35:00;;;;;;;12.95;6.50;;;;;;;;;;5014429;28;20065;-75
2021/07/23 10:37:29;;;;;;;9.77;6.70;;;;;;;;;;5014818;28;20025;-75
2021/07/23 10:40:11;;;;;;;8.15;6.75;;;;;;;;;;5014638;28;20033;-75
2021/07/23 10:42:41;;;;;;;9.30;6.63;;;;;;;;;;5014412;28;20169;-75
2021/07/23 10:45:08;;;;;;;7.57;6.53;;;;;;;;;;4996961;28;20425;-74
2021/07/23 10:47:51;;;;;;;8.68;6.20;;;;;;;;;;5014552;28;20022;-75
2021/07/23 10:50:21;;;;;;;8.45;6.50;;;;;;;;;;5014232;28;20479;-74
2021/07/23 10:52:47;;;;;;;12.98;6.55;;;;;;;;;;5013708;28;20387;-75
2021/07/23 10:55:23;;;;;;;9.52;6.65;;;;;;;;;;5013009;28;20026;-74
2021/07/23 10:58:07;;;;;;;9.23;6.78;;;;;;;;;;5013262;28;20526;-75
2021/07/23 11:00:50;;;;;;;7.68;6.50;;;;;;;;;;5013373;28;20026;-75
2021/07/23 11:03:40;;;;;;;10.23;6.35;;;;;;;;;;5013297;28;20042;-75
2021/07/23 11:06:21;;;;;;;8.25;6.78;;;;;;;;;;5013410;28;20041;-75
2021/07/23 11:08:48;;;;;;;11.53;7.07;;;;;;;;;;4995277;28;20443;-75
2021/07/23 11:11:14;;;;;;;12.10;6.85;;;;;;;;;;5013094;28;20400;-74
2021/07/23 11:13:41;;;;;;;10.80;6.63;;;;;;;;;;5012830;28;20046;-74
2021/07/23 11:16:13;;;;;;;12.65;7.13;;;;;;;;;;5013459;28;20049;-75
2021/07/23 11:18:53;;;;;;;7.60;6.80;;;;;;;;;;5013427;28;20033;-75
2021/07/23 11:21:19;;;;;;;10.40;7.13;;;;;;;;;;5012937;28;20093;-75
2021/07/23 11:23:46;;;;;;;7.80;6.55;;;;;;;;;;5012898;28;20029;-74
2021/07/23 11:26:13;;;;;;;10.75;6.63;;;;;;;;;;5013163;28;20033;-74
2021/07/23 11:28:49;;;;;;;7.82;6.53;;;;;;;;;;5012822;28;20054;-74
2021/07/23 11:31:28;;;;;;;9.75;7.20;;;;;;;;;;5013244;28;20390;-75
2021/07/23 11:33:54;;;;;;;45.42;8.43;;;;;;;;;;5012559;28;20580;-75
2021/07/23 11:36:36;;;;;;;11.57;6.70;;;;;;;;;;5012953;28;20116;-75
2021/07/23 11:39:03;;;;;;;9.55;7.18;;;;;;;;;;4995539;28;20029;-74
2021/07/23 11:41:29;;;;;;;11.30;7.63;;;;;;;;;;5012987;28;20029;-74
2021/07/23 11:44:08;;;;;;;12.68;6.93;;;;;;;;;;5013366;28;20482;-74
2021/07/23 11:46:35;;;;;;;10.50;7.07;;;;;;;;;;5012907;28;20493;-74
2021/07/23 11:49:01;;;;;;;10.57;7.38;;;;;;;;;;5012735;28;20030;-74
2021/07/23 11:51:37;;;;;;;13.98;7.28;;;;;;;;;;5012995;28;20049;-75
2021/07/23 11:54:03;;;;;;;8.00;6.75;;;;;;;;;;5012981;28;20565;-74
2021/07/23 11:56:32;;;;;;;9.80;7.28;;;;;;;;;;5013106;28;20097;-74
2021/07/23 11:58:59;;;;;;;9.73;7.00;;;;;;;;;;5012886;28;20124;-74
2021/07/23 12:01:26;;;;;;;10.93;7.40;;;;;;;;;;5013004;28;20363;-74
2021/07/23 12:03:56;;;;;;;8.82;7.68;;;;;;;;;;5013534;28;20034;-73
2021/07/23 12:06:31;;;;;;;8.68;7.30;;;;;;;;;;5012842;28;20068;-74
2021/07/23 12:09:23;;;;;;;9.77;7.75;;;;;;;;;;5012402;28;20060;-74
2021/07/23 12:11:49;;;;;;;10.55;7.30;;;;;;;;;;5010981;28;20030;-75
2021/07/23 12:14:16;;;;;;;14.05;8.13;;;;;;;;;;5012781;28;20034;-74
2021/07/23 12:16:42;;;;;;;11.65;7.45;;;;;;;;;;5011456;28;20363;-75
2021/07/23 12:19:09;;;;;;;9.48;8.27;;;;;;;;;;5012883;28;20109;-75
2021/07/23 12:21:36;;;;;;;10.65;7.30;;;;;;;;;;5012907;28;20493;-76
2021/07/23 12:24:04;;;;;;;11.43;7.60;;;;;;;;;;5018704;28;20026;-76
2021/07/23 12:26:34;;;;;;;13.52;8.25;;;;;;;;;;5032294;28;20108;-76
2021/07/23 12:29:01;;;;;;;11.25;7.75;;;;;;;;;;5032229;28;20110;-75
2021/07/23 12:31:27;;;;;;;12.25;7.85;;;;;;;;;;5032425;28;20105;-76
2021/07/23 12:34:07;;;;;;;16.40;7.50;;;;;;;;;;5031771;28;20048;-76
2021/07/23 12:36:42;;;;;;;10.15;8.20;;;;;;;;;;5032218;28;20026;-75
2021/07/23 12:39:08;;;;;;;13.48;7.57;;;;;;;;;;5031726;28;20053;-75
2021/07/23 12:41:34;;;;;;;11.45;8.30;;;;;;;;;;5031618;28;20021;-74
2021/07/23 12:44:07;;;;;;;11.40;8.05;;;;;;;;;;5032104;28;20068;-75
2021/07/23 12:46:34;;;;;;;14.15;8.15;;;;;;;;;;5030210;28;20025;-76
2021/07/23 12:49:09;;;;;;;12.13;7.57;;;;;;;;;;5030962;28;20025;-76
2021/07/23 12:51:35;;;;;;;8.77;7.88;;;;;;;;;;5034103;28;20459;-76
2021/07/23 12:54:01;;;;;;;12.82;8.80;;;;;;;;;;5035924;28;20045;-76
2021/07/23 12:56:34;;;;;;;13.40;8.32;;;;;;;;;;5035163;28;20139;-75
2021/07/23 12:59:00;;;;;;;12.02;7.82;;;;;;;;;;5035372;28;20036;-76
2021/07/23 13:01:26;;;;;;;11.50;7.57;;;;;;;;;;5035452;28;20100;-75
2021/07/23 13:03:55;;;;;;;9.75;7.32;;;;;;;;;;5035460;28;20033;-76
2021/07/23 13:06:22;;;;;;;11.18;7.55;;;;;;;;;;5035361;28;20021;-75
2021/07/23 13:08:52;;;;;;;11.43;8.02;;;;;;;;;;5035584;28;20475;-75
2021/07/23 13:11:20;;;;;;;12.50;7.40;;;;;;;;;;5035404;28;20096;-75
2021/07/23 13:13:47;;;;;;;13.32;7.05;;;;;;;;;;5035061;28;20421;-75
2021/07/23 13:16:16;;;;;;;8.80;7.00;;;;;;;;;;5035294;28;20100;-75
2021/07/23 13:18:44;;;;;;;10.80;7.68;;;;;;;;;;5034492;28;20079;-77
2021/07/23 13:21:11;;;;;;;10.63;7.57;;;;;;;;;;5034661;28;20108;-76
2021/07/23 13:23:37;;;;;;;14.73;7.38;;;;;;;;;;5035063;28;20363;-76
2021/07/23 13:26:04;;;;;;;9.55;7.05;;;;;;;;;;5017371;28;20117;-76
2021/07/23 13:28:31;;;;;;;9.82;7.95;;;;;;;;;;5034987;28;20095;-74
2021/07/23 13:30:58;;;;;;;12.25;7.90;;;;;;;;;;5035053;28;20428;-77
2021/07/23 13:33:24;;;;;;;10.63;7.80;;;;;;;;;;5034320;28;20045;-76
2021/07/23 13:35:53;;;;;;;9.20;7.53;;;;;;;;;;5034415;28;20028;-75
2021/07/23 13:38:23;;;;;;;8.57;6.95;;;;;;;;;;5034763;28;20025;-75
2021/07/23 13:40:50;;;;;;;11.20;7.90;;;;;;;;;;5035006;28;20061;-75
2021/07/23 13:43:17;;;;;;;10.82;8.05;;;;;;;;;;5035066;28;20033;-76
2021/07/23 13:45:43;;;;;;;16.25;7.70;;;;;;;;;;5034803;28;20026;-76
2021/07/23 13:48:10;;;;;;;13.35;8.48;;;;;;;;;;5035069;28;20075;-76
2021/07/23 13:50:36;;;;;;;11.23;7.90;;;;;;;;;;5034970;28;20037;-75
2021/07/23 13:53:02;;;;;;;10.48;7.53;;;;;;;;;;5034243;28;20104;-75
2021/07/23 13:55:28;;;;;;;11.15;7.75;;;;;;;;;;5034863;28;20040;-76
2021/07/23 13:57:54;;;;;;;12.07;7.78;;;;;;;;;;5034840;28;20437;-75
2021/07/23 14:00:20;;;;;;;12.77;7.57;;;;;;;;;;5034672;28;20400;-75
2021/07/23 14:02:47;;;;;;;12.57;7.65;;;;;;;;;;5033401;28;20018;-75
2021/07/23 14:05:13;;;;;;;15.23;8.05;;;;;;;;;;5034377;28;20021;-75
2021/07/23 14:07:39;;;;;;;11.02;7.53;;;;;;;;;;5035021;28;20100;-76
2021/07/23 14:10:06;;;;;;;10.60;6.90;;;;;;;;;;5031201;28;20490;-76
2021/07/23 14:12:32;;;;;;;10.55;7.70;;;;;;;;;;5031919;28;20025;-76
2021/07/23 14:27:09;;;;;;;20.75;8.95;;;;;;;;;;5090752;28;20378;-74
2021/07/23 14:29:35;;;;;;;10.35;8.30;;;;;;;;;;5090411;28;20020;-75
2021/07/23 14:32:01;;;;;;;10.15;8.35;;;;;;;;;;5090417;28;20112;-74
2021/07/23 14:34:27;;;;;;;12.70;7.95;;;;;;;;;;5090380;28;20031;-74
2021/07/23 14:36:53;;;;;;;11.98;8.63;;;;;;;;;;5090241;28;20021;-74
2021/07/23 14:39:19;;;;;;;10.63;7.50;;;;;;;;;;5088770;28;20039;-74
2021/07/23 14:41:46;;;;;;;11.32;8.25;;;;;;;;;;5088663;28;20027;-76
2021/07/23 14:44:12;;;;;;;12.07;7.97;;;;;;;;;;5089593;28;20024;-74
2021/07/23 14:46:38;;;;;;;10.35;7.70;;;;;;;;;;5089819;28;20075;-74